createdAt,value
2023-11-20T00:00:19.260Z,2.41
2023-11-20T00:03:21.219Z,2.55
2023-11-20T00:06:23.214Z,2.53
2023-11-20T00:09:25.085Z,2.53
2023-11-20T00:12:27.510Z,2.64
2023-11-20T00:15:29.397Z,2.65
2023-11-20T00:18:33.804Z,2.69
2023-11-20T00:21:39.943Z,2.65
2023-11-20T00:24:41.904Z,2.80
2023-11-20T00:27:44.474Z,2.72
2023-11-20T00:30:46.946Z,2.74
2023-11-20T00:33:49.386Z,2.79
2023-11-20T00:36:51.375Z,2.83
2023-11-20T00:39:53.352Z,2.82
2023-11-20T00:42:55.396Z,2.53
2023-11-20T00:45:57.554Z,2.81
2023-11-20T00:49:00.008Z,2.86
2023-11-20T00:52:02.748Z,2.74
2023-11-20T00:55:12.088Z,2.81
2023-11-20T00:58:14.244Z,2.85
2023-11-20T01:01:16.868Z,2.87
2023-11-20T01:04:18.982Z,2.92
2023-11-20T01:07:20.912Z,2.88
2023-11-20T01:10:23.257Z,2.92
2023-11-20T01:13:25.181Z,2.92
2023-11-20T01:16:27.140Z,2.87
2023-11-20T01:19:29.322Z,2.92
2023-11-20T01:22:31.949Z,2.86
2023-11-20T01:25:33.934Z,2.88
2023-11-20T01:28:36.563Z,2.78
2023-11-20T01:31:38.561Z,2.72
2023-11-20T01:34:40.602Z,2.79
2023-11-20T01:37:42.565Z,2.72
2023-11-20T01:40:45.528Z,2.80
2023-11-20T01:43:47.538Z,2.81
2023-11-20T01:46:50.800Z,2.80
2023-11-20T01:49:53.137Z,2.82
2023-11-20T01:52:55.048Z,2.80
2023-11-20T01:55:57.256Z,2.87
2023-11-20T01:59:05.271Z,2.84
2023-11-20T02:02:07.564Z,2.84
2023-11-20T02:05:10.522Z,2.74
2023-11-20T02:08:12.450Z,2.72
2023-11-20T02:11:14.688Z,2.79
2023-11-20T02:14:16.842Z,2.83
2023-11-20T02:17:19.084Z,2.80
2023-11-20T02:20:25.052Z,2.73
2023-11-20T02:23:27.094Z,2.75
2023-11-20T02:26:35.311Z,2.80
2023-11-20T02:29:37.497Z,2.76
2023-11-20T02:32:39.417Z,2.63
2023-11-20T02:35:41.243Z,2.71
2023-11-20T02:38:43.512Z,2.69
2023-11-20T02:41:46.395Z,2.58
2023-11-20T02:44:51.585Z,2.60
2023-11-20T02:47:53.905Z,2.65
2023-11-20T02:50:56.780Z,2.56
2023-11-20T02:53:58.615Z,2.65
2023-11-20T02:57:01.345Z,2.69
2023-11-20T03:00:03.832Z,2.76
2023-11-20T03:03:07.718Z,2.76
2023-11-20T03:06:09.798Z,2.77
2023-11-20T03:09:12.250Z,2.79
2023-11-20T03:12:14.161Z,2.78
2023-11-20T03:15:16.053Z,2.79
2023-11-20T03:18:18.794Z,2.79
2023-11-20T03:21:20.811Z,2.79
2023-11-20T03:24:22.763Z,2.78
2023-11-20T03:27:24.805Z,2.79
2023-11-20T03:30:28.715Z,2.86
2023-11-20T03:33:30.709Z,2.83
2023-11-20T03:36:35.708Z,2.76
2023-11-20T03:39:38.125Z,2.92
2023-11-20T03:42:40.160Z,2.91
2023-11-20T03:45:42.190Z,2.73
2023-11-20T03:48:44.129Z,2.99
2023-11-20T03:51:46.264Z,2.76
2023-11-20T03:54:48.182Z,2.99
2023-11-20T03:57:50.065Z,3.03
2023-11-20T04:00:52.061Z,3.01
2023-11-20T04:03:54.198Z,3.07
2023-11-20T04:06:56.143Z,3.06
2023-11-20T04:09:58.115Z,3.16
2023-11-20T04:13:00.593Z,2.90
2023-11-20T04:16:02.698Z,3.04
2023-11-20T04:19:05.241Z,3.13
2023-11-20T04:22:08.686Z,3.09
2023-11-20T04:25:10.870Z,3.04
2023-11-20T04:28:12.871Z,3.00
2023-11-20T04:31:14.898Z,3.08
2023-11-20T04:34:17.043Z,3.05
2023-11-20T04:37:19.018Z,3.05
2023-11-20T04:40:21.739Z,3.06
2023-11-20T04:43:26.843Z,3.05
2023-11-20T04:46:29.296Z,2.98
2023-11-20T04:49:31.597Z,3.04
2023-11-20T04:52:34.436Z,3.07
2023-11-20T04:55:36.373Z,3.00
2023-11-20T04:58:39.281Z,2.91
2023-11-20T05:01:41.288Z,2.99
2023-11-20T05:04:43.543Z,2.88
2023-11-20T05:07:45.687Z,2.89
2023-11-20T05:10:47.639Z,3.01
2023-11-20T05:13:49.722Z,3.06
2023-11-20T05:16:51.628Z,3.03
2023-11-20T05:19:53.534Z,2.98
2023-11-20T05:22:55.528Z,2.69
2023-11-20T05:25:57.475Z,3.00
2023-11-20T05:28:59.412Z,3.03
2023-11-20T05:32:01.347Z,3.03
2023-11-20T05:35:03.529Z,3.07
2023-11-20T05:38:05.482Z,2.97
2023-11-20T05:41:08.275Z,2.55
2023-11-20T05:44:10.215Z,3.06
2023-11-20T05:47:12.193Z,3.09
2023-11-20T05:50:15.022Z,2.37
2023-11-20T05:53:16.963Z,3.00
2023-11-20T05:56:18.798Z,3.08
2023-11-20T05:59:20.998Z,2.92
2023-11-20T06:02:22.914Z,2.78
2023-11-20T06:05:24.802Z,2.99
2023-11-20T06:08:26.761Z,2.97
2023-11-20T06:11:30.049Z,2.82
2023-11-20T06:14:32.891Z,3.01
2023-11-20T06:17:35.989Z,3.09
2023-11-20T06:20:38.029Z,3.00
2023-11-20T06:23:39.994Z,2.98
2023-11-20T06:26:42.858Z,3.06
2023-11-20T06:29:45.120Z,3.12
2023-11-20T06:32:48.616Z,3.19
2023-11-20T06:35:50.946Z,3.19
2023-11-20T06:38:54.249Z,3.23
2023-11-20T06:41:56.151Z,3.22
2023-11-20T06:44:58.138Z,3.27
2023-11-20T06:48:00.092Z,3.25
2023-11-20T06:51:02.125Z,3.23
2023-11-20T06:54:05.257Z,3.23
2023-11-20T06:57:07.374Z,3.36
2023-11-20T07:00:13.325Z,3.36
2023-11-20T07:03:15.474Z,3.31
2023-11-20T07:06:20.291Z,3.36
2023-11-20T07:09:30.435Z,3.33
2023-11-20T07:12:32.415Z,3.38
2023-11-20T07:15:35.098Z,3.44
2023-11-20T07:18:37.361Z,3.43
2023-11-20T07:21:40.949Z,3.48
2023-11-20T07:24:43.972Z,3.41
2023-11-20T07:27:46.101Z,3.48
2023-11-20T07:30:49.666Z,3.54
2023-11-20T07:33:51.900Z,3.61
2023-11-20T07:36:55.874Z,3.62
2023-11-20T07:39:58.683Z,3.73
2023-11-20T07:43:00.603Z,3.72
2023-11-20T07:46:02.583Z,3.63
2023-11-20T07:49:04.684Z,3.75
2023-11-20T07:52:07.405Z,3.79
2023-11-20T07:55:10.159Z,3.60
2023-11-20T07:58:12.170Z,3.77
2023-11-20T08:01:14.518Z,3.85
2023-11-20T08:04:18.295Z,3.86
2023-11-20T08:07:20.447Z,3.87
2023-11-20T08:10:22.585Z,3.65
2023-11-20T08:13:25.481Z,3.82
2023-11-20T08:16:27.530Z,3.84
2023-11-20T08:19:30.833Z,3.78
2023-11-20T08:22:36.009Z,3.82
2023-11-20T08:25:38.199Z,3.92
2023-11-20T08:28:42.905Z,3.96
2023-11-20T08:31:45.368Z,3.96
2023-11-20T08:34:47.514Z,3.93
2023-11-20T08:37:49.470Z,3.93
2023-11-20T08:40:52.017Z,3.88
2023-11-20T08:43:54.011Z,3.96
2023-11-20T08:46:56.006Z,3.73
2023-11-20T08:49:57.967Z,3.98
2023-11-20T08:53:00.403Z,3.95
2023-11-20T08:56:02.881Z,4.06
2023-11-20T08:59:04.803Z,4.01
2023-11-20T09:02:07.431Z,3.87
2023-11-20T09:05:11.478Z,3.92
2023-11-20T09:08:13.481Z,3.85
2023-11-20T09:11:15.429Z,3.94
2023-11-20T09:14:17.991Z,4.04
2023-11-20T09:17:20.431Z,4.06
2023-11-20T09:20:25.666Z,4.08
2023-11-20T09:23:28.064Z,4.02
2023-11-20T09:26:30.060Z,4.01
2023-11-20T09:29:31.985Z,4.13
2023-11-20T09:32:34.058Z,4.10
2023-11-20T09:35:37.380Z,4.16
2023-11-20T09:38:39.685Z,4.21
2023-11-20T09:41:45.299Z,3.93
2023-11-20T09:44:52.624Z,4.25
2023-11-20T09:47:58.831Z,4.24
2023-11-20T09:51:07.488Z,4.22
2023-11-20T09:54:17.206Z,4.13
2023-11-20T09:57:24.507Z,4.07
2023-11-20T10:00:26.697Z,4.09
2023-11-20T10:03:28.921Z,3.95
2023-11-20T10:06:33.364Z,3.95
2023-11-20T10:09:36.417Z,3.96
2023-11-20T10:12:40.911Z,4.02
2023-11-20T10:15:42.753Z,4.00
2023-11-20T10:18:44.962Z,4.00
2023-11-20T10:21:50.290Z,3.97
2023-11-20T10:24:52.239Z,4.11
2023-11-20T10:27:54.201Z,4.16
2023-11-20T10:30:56.585Z,4.19
2023-11-20T10:34:09.677Z,4.24
2023-11-20T10:37:13.092Z,4.17
2023-11-20T10:40:15.207Z,4.16
2023-11-20T10:43:17.258Z,4.28
2023-11-20T10:46:21.709Z,4.24
2023-11-20T10:49:25.652Z,4.34
2023-11-20T10:52:30.648Z,4.36
2023-11-20T10:55:40.172Z,4.36
2023-11-20T10:58:45.187Z,4.41
2023-11-20T11:01:48.013Z,4.39
2023-11-20T11:04:53.926Z,4.52
2023-11-20T11:07:59.052Z,4.54
2023-11-20T11:11:05.040Z,4.47
2023-11-20T11:14:07.194Z,4.42
2023-11-20T11:17:14.963Z,4.43
2023-11-20T11:20:24.385Z,4.42
2023-11-20T11:23:35.245Z,4.51
2023-11-20T11:26:49.951Z,4.51
2023-11-20T11:29:58.496Z,4.51
2023-11-20T11:33:18.599Z,4.60
2023-11-20T11:36:23.657Z,4.63
2023-11-20T11:39:40.534Z,4.57
2023-11-20T11:42:52.615Z,4.16
2023-11-20T11:45:59.401Z,4.40
2023-11-20T11:49:21.926Z,4.25
2023-11-20T11:52:32.389Z,4.46
2023-11-20T11:55:43.089Z,4.30
2023-11-20T11:58:46.548Z,4.56
2023-11-20T12:01:49.379Z,4.56
2023-11-20T12:04:57.397Z,4.57
2023-11-20T12:08:01.139Z,4.59
2023-11-20T12:11:03.421Z,4.33
2023-11-20T12:14:13.875Z,4.52
2023-11-20T12:17:17.369Z,4.53
2023-11-20T12:20:19.626Z,4.47
2023-11-20T12:23:35.253Z,4.61
2023-11-20T12:26:38.043Z,4.34
2023-11-20T12:29:41.771Z,4.54
2023-11-20T12:32:43.769Z,4.48
2023-11-20T12:35:53.440Z,4.54
2023-11-20T12:38:57.034Z,4.44
2023-11-20T12:41:59.093Z,4.47
2023-11-20T12:45:02.094Z,4.49
2023-11-20T12:48:04.297Z,4.48
2023-11-20T12:51:08.375Z,4.48
2023-11-20T12:54:11.662Z,4.50
2023-11-20T12:57:13.602Z,4.51
2023-11-20T13:00:19.634Z,4.35
2023-11-20T13:03:21.822Z,4.49
2023-11-20T13:06:23.771Z,4.44
2023-11-20T13:09:26.863Z,4.56
2023-11-20T13:12:29.731Z,4.51
2023-11-20T13:15:32.986Z,4.44
2023-11-20T13:18:46.834Z,4.61
2023-11-20T13:21:50.650Z,4.67
2023-11-20T13:24:57.054Z,4.70
2023-11-20T13:27:59.519Z,4.57
2023-11-20T13:31:09.781Z,4.49
2023-11-20T13:34:12.146Z,4.51
2023-11-20T13:37:14.140Z,4.56
2023-11-20T13:40:18.484Z,4.55
2023-11-20T13:43:25.807Z,4.48
2023-11-20T13:46:34.358Z,4.51
2023-11-20T13:49:36.723Z,4.48
2023-11-20T13:52:39.807Z,4.48
2023-11-20T13:55:49.260Z,4.46
2023-11-20T13:58:51.849Z,4.55
2023-11-20T14:01:54.060Z,4.64
2023-11-20T14:04:56.124Z,4.62
2023-11-20T14:07:59.496Z,4.60
2023-11-20T14:11:01.463Z,4.58
2023-11-20T14:14:04.437Z,4.47
2023-11-20T14:17:06.823Z,4.61
2023-11-20T14:20:09.788Z,4.68
2023-11-20T14:23:11.741Z,4.39
2023-11-20T14:26:29.035Z,4.57
2023-11-20T14:29:36.000Z,4.55
2023-11-20T14:32:43.234Z,4.69
2023-11-20T14:35:45.445Z,4.60
2023-11-20T14:38:47.357Z,4.63
2023-11-20T14:41:50.672Z,4.66
2023-11-20T14:44:53.352Z,4.63
2023-11-20T14:47:55.317Z,4.59
2023-11-20T14:50:57.365Z,4.62
2023-11-20T14:54:00.161Z,4.62
2023-11-20T14:57:04.757Z,4.62
2023-11-20T15:00:15.286Z,4.51
2023-11-20T15:03:17.361Z,4.62
2023-11-20T15:06:19.603Z,4.58
2023-11-20T15:09:21.493Z,4.63
2023-11-20T15:12:23.417Z,4.48
2023-11-20T15:15:25.886Z,4.62
2023-11-20T15:18:27.772Z,4.59
2023-11-20T15:21:29.681Z,4.60
2023-11-20T15:24:33.536Z,4.64
2023-11-20T15:27:36.777Z,4.66
2023-11-20T15:30:38.636Z,4.55
2023-11-20T15:33:40.780Z,4.64
2023-11-20T15:36:42.725Z,4.61
2023-11-20T15:39:44.863Z,4.65
2023-11-20T15:42:46.905Z,4.62
2023-11-20T15:45:53.014Z,4.35
2023-11-20T15:48:56.524Z,4.59
2023-11-20T15:51:58.405Z,4.35
2023-11-20T15:55:01.159Z,4.63
2023-11-20T15:58:03.303Z,4.59
2023-11-20T16:01:05.641Z,4.56
2023-11-20T16:04:07.684Z,4.64
2023-11-20T16:07:09.633Z,4.65
2023-11-20T16:10:15.936Z,4.36
2023-11-20T16:13:19.272Z,4.56
2023-11-20T16:16:21.376Z,4.62
2023-11-20T16:19:25.090Z,4.62
2023-11-20T16:22:27.172Z,4.38
2023-11-20T16:25:40.219Z,4.54
2023-11-20T16:28:47.767Z,4.60
2023-11-20T16:31:52.801Z,4.59
2023-11-20T16:34:54.774Z,4.56
2023-11-20T16:37:58.689Z,4.58
2023-11-20T16:41:00.965Z,4.69
2023-11-20T16:44:03.312Z,4.61
2023-11-20T16:47:05.528Z,4.55
2023-11-20T16:50:07.994Z,4.66
2023-11-20T16:53:10.022Z,4.65
2023-11-20T16:56:12.169Z,4.62
2023-11-20T16:59:15.244Z,4.69
2023-11-20T17:02:17.996Z,4.69
2023-11-20T17:05:20.734Z,4.68
2023-11-20T17:08:25.080Z,4.60
2023-11-20T17:11:27.068Z,4.73
2023-11-20T17:14:29.146Z,4.71
2023-11-20T17:17:31.325Z,4.66
2023-11-20T17:20:33.277Z,4.64
2023-11-20T17:23:35.262Z,4.69
2023-11-20T17:26:37.375Z,4.65
2023-11-20T17:29:40.096Z,4.71
2023-11-20T17:32:42.887Z,4.75
2023-11-20T17:35:44.978Z,4.75
2023-11-20T17:38:48.231Z,4.75
2023-11-20T17:41:51.215Z,4.81
2023-11-20T17:44:53.276Z,4.77
2023-11-20T17:47:55.272Z,4.79
2023-11-20T17:50:57.270Z,4.81
2023-11-20T17:53:59.268Z,4.79
2023-11-20T17:57:01.225Z,4.64
2023-11-20T18:00:06.823Z,4.56
2023-11-20T18:03:14.525Z,4.69
2023-11-20T18:06:16.933Z,4.83
2023-11-20T18:09:22.525Z,4.84
2023-11-20T18:12:24.977Z,4.81
2023-11-20T18:15:26.842Z,4.80
2023-11-20T18:18:28.829Z,4.88
2023-11-20T18:21:36.034Z,4.85
2023-11-20T18:24:43.994Z,4.84
2023-11-20T18:27:46.212Z,4.85
2023-11-20T18:30:50.979Z,4.90
2023-11-20T18:33:52.928Z,4.87
2023-11-20T18:36:59.132Z,4.83
2023-11-20T18:40:01.902Z,4.75
2023-11-20T18:56:13.475Z,5.28
2023-11-20T18:59:16.169Z,5.35
2023-11-20T19:02:18.203Z,5.26
2023-11-20T19:05:20.333Z,5.27
2023-11-20T19:08:22.304Z,5.12
2023-11-20T19:11:24.252Z,5.28
2023-11-20T19:14:27.817Z,5.34
2023-11-20T19:17:33.130Z,5.34
2023-11-20T19:20:35.041Z,5.33
2023-11-20T19:23:37.686Z,5.34
2023-11-20T19:26:39.830Z,5.13
2023-11-20T19:29:42.846Z,5.04
2023-11-20T19:32:45.691Z,5.18
2023-11-20T19:35:47.640Z,5.17
2023-11-20T19:38:51.587Z,5.18
2023-11-20T19:42:00.754Z,5.08
2023-11-20T19:45:05.051Z,4.99
2023-11-20T19:48:07.035Z,4.93
2023-11-20T19:51:09.329Z,4.97
2023-11-20T19:54:11.328Z,4.99
2023-11-20T19:57:13.746Z,5.05
2023-11-20T20:00:18.731Z,4.96
2023-11-20T20:03:22.474Z,5.03
2023-11-20T20:06:25.073Z,5.00
2023-11-20T20:09:28.749Z,5.03
2023-11-20T20:12:31.044Z,5.11
2023-11-20T20:15:33.408Z,5.13
2023-11-20T20:18:35.348Z,5.12
2023-11-20T20:21:37.611Z,5.05
2023-11-20T20:24:41.960Z,5.01
2023-11-20T20:40:51.509Z,5.33
2023-11-20T20:43:53.630Z,5.33
2023-11-20T20:46:55.659Z,5.10
2023-11-20T20:49:57.750Z,5.11
2023-11-20T20:52:59.731Z,5.15
2023-11-20T20:56:06.601Z,5.15
2023-11-20T20:59:09.344Z,5.09
2023-11-20T21:02:11.809Z,5.06
2023-11-20T21:05:15.628Z,4.99
2023-11-20T21:08:17.546Z,5.03
2023-11-20T21:11:19.446Z,4.99
2023-11-20T21:14:24.820Z,5.03
2023-11-20T21:17:26.991Z,4.94
2023-11-20T21:20:28.768Z,5.08
2023-11-20T21:23:30.594Z,5.06
2023-11-20T21:26:33.457Z,5.05
2023-11-20T21:29:35.420Z,5.04
2023-11-20T21:32:37.327Z,5.02
2023-11-20T21:35:47.554Z,5.05
2023-11-20T21:38:51.970Z,5.00
2023-11-20T21:41:53.926Z,5.09
2023-11-20T21:44:57.743Z,5.09
2023-11-20T21:47:59.657Z,5.10
2023-11-20T21:51:01.742Z,5.12
2023-11-20T21:54:04.417Z,5.12
2023-11-20T21:57:06.324Z,5.12
2023-11-20T22:00:13.657Z,5.12
2023-11-20T22:03:16.549Z,5.12
2023-11-20T22:06:18.686Z,5.15
2023-11-20T22:09:21.332Z,5.10
2023-11-20T22:12:23.371Z,5.18
2023-11-20T22:15:26.510Z,5.05
2023-11-20T22:18:28.536Z,5.05
2023-11-20T22:21:30.409Z,5.12
2023-11-20T22:24:32.597Z,5.13
2023-11-20T22:27:34.482Z,5.17
2023-11-20T22:30:37.241Z,5.08
2023-11-20T22:33:39.132Z,5.13
2023-11-20T22:36:42.213Z,5.06
2023-11-20T22:39:44.055Z,5.10
2023-11-20T22:42:46.741Z,5.17
2023-11-20T22:45:48.782Z,5.09
2023-11-20T22:48:50.709Z,5.03
2023-11-20T22:51:52.506Z,5.15
2023-11-20T22:54:54.407Z,5.14
2023-11-20T22:57:56.904Z,5.19
2023-11-20T23:01:01.524Z,5.19
2023-11-20T23:04:04.024Z,5.24
2023-11-20T23:07:06.650Z,5.20
2023-11-20T23:10:10.661Z,5.14
2023-11-20T23:13:13.868Z,5.14
2023-11-20T23:16:16.877Z,5.15
2023-11-20T23:19:19.570Z,5.17
2023-11-20T23:22:21.954Z,5.23
2023-11-20T23:25:25.082Z,5.32
2023-11-20T23:28:28.375Z,5.30
2023-11-20T23:31:30.392Z,5.32
2023-11-20T23:34:33.436Z,5.21
2023-11-20T23:37:35.799Z,5.22
2023-11-20T23:40:37.727Z,5.28
2023-11-20T23:43:39.671Z,5.17
2023-11-20T23:46:43.604Z,4.97
2023-11-20T23:49:47.124Z,5.27
2023-11-20T23:52:49.152Z,5.29
2023-11-20T23:55:51.139Z,5.23
2023-11-20T23:58:53.274Z,5.36
